createdAt,value
2022-08-31T00:03:22.211Z,8.23
2022-08-31T00:05:49.988Z,13.00
2022-08-31T00:08:26.315Z,11.80
2022-08-31T00:11:16.987Z,15.73
2022-08-31T00:13:55.367Z,8.88
2022-08-31T00:16:23.102Z,12.77
2022-08-31T00:18:52.830Z,12.32
2022-08-31T00:21:22.119Z,11.57
2022-08-31T00:23:51.425Z,11.13
2022-08-31T00:26:18.799Z,10.20
2022-08-31T00:28:46.571Z,15.52
2022-08-31T00:31:27.864Z,10.85
2022-08-31T00:33:57.634Z,10.85
2022-08-31T00:36:47.572Z,13.02
2022-08-31T00:39:14.932Z,10.15
2022-08-31T00:41:44.696Z,10.55
2022-08-31T00:44:15.486Z,12.82
2022-08-31T00:46:43.824Z,16.02
2022-08-31T00:49:15.583Z,17.10
2022-08-31T00:52:05.032Z,14.75
2022-08-31T00:56:28.186Z,11.38
2022-08-31T00:59:18.840Z,22.20
2022-08-31T01:01:57.528Z,13.68
2022-08-31T01:04:28.796Z,17.15
2022-08-31T01:06:59.044Z,25.13
2022-08-31T01:09:27.335Z,16.02
2022-08-31T01:11:54.421Z,19.73
2022-08-31T01:14:24.807Z,17.50
2022-08-31T01:16:59.253Z,16.55
2022-08-31T01:19:44.812Z,15.15
2022-08-31T01:22:47.715Z,15.88
2022-08-31T01:25:19.743Z,16.50
2022-08-31T01:27:47.334Z,17.23
2022-08-31T01:30:26.144Z,14.90
2022-08-31T01:33:19.147Z,19.20
2022-08-31T01:35:46.322Z,16.02
2022-08-31T01:42:33.350Z,16.45
2022-08-31T01:45:08.254Z,22.77
2022-08-31T01:47:35.698Z,22.08
2022-08-31T01:50:02.923Z,16.30
2022-08-31T01:52:30.323Z,15.95
2022-08-31T01:54:57.510Z,19.35
2022-08-31T01:57:43.682Z,14.25
2022-08-31T02:01:33.122Z,14.07
2022-08-31T02:08:06.603Z,16.35
2022-08-31T02:10:50.558Z,17.27
2022-08-31T02:18:50.753Z,13.70
2022-08-31T02:21:18.464Z,15.98
2022-08-31T02:23:45.932Z,19.15
2022-08-31T02:26:12.892Z,13.98
2022-08-31T02:28:40.729Z,18.58
2022-08-31T02:31:17.846Z,18.98
2022-08-31T02:33:54.350Z,17.17
2022-08-31T02:36:42.847Z,14.85
2022-08-31T02:39:13.692Z,14.20
2022-08-31T02:41:59.318Z,12.93
2022-08-31T02:45:03.940Z,18.17
2022-08-31T02:48:07.125Z,15.02
2022-08-31T02:51:02.180Z,16.67
2022-08-31T02:53:29.213Z,15.95
2022-08-31T02:55:56.357Z,14.63
2022-08-31T02:58:24.164Z,14.38
2022-08-31T03:00:51.494Z,18.20
2022-08-31T03:03:19.262Z,15.57
2022-08-31T03:05:46.352Z,15.13
2022-08-31T03:08:13.430Z,18.27
2022-08-31T03:10:41.927Z,17.40
2022-08-31T03:13:08.760Z,19.40
2022-08-31T03:15:35.809Z,15.98
2022-08-31T03:18:06.185Z,19.88
2022-08-31T03:20:34.577Z,24.98
2022-08-31T03:23:05.632Z,27.42
2022-08-31T03:25:48.393Z,22.90
2022-08-31T03:29:35.129Z,24.25
2022-08-31T04:34:56.215Z,27.10
2022-08-31T04:38:04.497Z,25.40
2022-08-31T04:40:32.163Z,31.45
2022-08-31T04:43:00.111Z,30.05
2022-08-31T04:45:27.252Z,26.92
2022-08-31T04:47:54.269Z,35.10
2022-08-31T04:50:22.867Z,29.90
2022-08-31T05:03:34.040Z,32.22
2022-08-31T05:20:17.249Z,30.50
2022-08-31T05:26:10.355Z,32.53
2022-08-31T05:28:43.816Z,35.80
2022-08-31T05:31:11.427Z,29.55
2022-08-31T05:33:45.867Z,35.45
2022-08-31T05:36:15.423Z,30.08
2022-08-31T05:38:46.217Z,30.67
2022-08-31T05:41:32.981Z,29.13
2022-08-31T05:45:12.042Z,36.33
2022-08-31T05:47:51.953Z,29.13
2022-08-31T05:50:28.100Z,37.83
2022-08-31T05:52:56.017Z,36.60
2022-08-31T05:55:40.450Z,37.47
2022-08-31T05:58:07.493Z,24.20
2022-08-31T06:00:57.727Z,27.00
2022-08-31T06:03:47.967Z,30.95
2022-08-31T06:06:26.283Z,35.42
2022-08-31T06:08:54.939Z,26.42
2022-08-31T06:11:43.862Z,29.67
2022-08-31T06:14:18.535Z,28.88
2022-08-31T06:16:49.967Z,38.35
2022-08-31T06:19:50.241Z,30.58
2022-08-31T06:22:20.187Z,26.15
2022-08-31T06:24:53.279Z,43.60
2022-08-31T06:27:20.491Z,31.00
2022-08-31T06:29:52.550Z,36.88
2022-08-31T06:32:21.803Z,28.65
2022-08-31T06:35:19.068Z,32.97
2022-08-31T06:38:05.172Z,30.45
2022-08-31T06:40:45.810Z,29.45
2022-08-31T06:44:03.859Z,32.92
2022-08-31T06:46:40.426Z,28.30
2022-08-31T06:49:20.418Z,31.77
2022-08-31T06:51:47.824Z,35.15
2022-08-31T06:54:29.174Z,39.10
2022-08-31T06:57:45.251Z,39.60
2022-08-31T07:00:33.794Z,32.97
2022-08-31T07:03:44.820Z,29.45
2022-08-31T07:06:17.366Z,37.47
2022-08-31T07:08:46.988Z,35.88
2022-08-31T07:11:42.277Z,34.45
2022-08-31T07:14:17.702Z,35.15
2022-08-31T07:17:11.816Z,41.28
2022-08-31T07:19:56.494Z,36.97
2022-08-31T07:23:02.608Z,33.55
2022-08-31T07:30:09.140Z,36.97
2022-08-31T07:34:40.593Z,32.90
2022-08-31T07:47:22.595Z,29.73
2022-08-31T07:50:58.474Z,21.08
2022-08-31T07:54:44.935Z,20.60
2022-08-31T08:11:34.923Z,18.50
2022-08-31T08:24:10.963Z,21.60
2022-08-31T08:26:58.102Z,21.50
2022-08-31T08:30:09.424Z,24.80
2022-08-31T08:32:36.920Z,24.95
2022-08-31T08:35:13.470Z,18.48
2022-08-31T08:38:33.596Z,24.98
2022-08-31T08:50:24.884Z,26.42
2022-08-31T08:51:40.402Z,22.80
2022-08-31T08:59:23.686Z,20.77
2022-08-31T09:43:36.294Z,10.10
2022-08-31T09:46:31.814Z,12.05
2022-08-31T09:49:27.092Z,10.43
2022-08-31T09:52:50.491Z,9.52
2022-08-31T09:55:24.917Z,12.98
2022-08-31T09:57:57.629Z,11.85
2022-08-31T10:00:41.195Z,8.73
2022-08-31T10:03:20.570Z,10.93
2022-08-31T10:05:48.804Z,12.68
2022-08-31T10:08:21.674Z,9.68
2022-08-31T10:10:49.952Z,8.85
2022-08-31T10:13:40.500Z,10.85
2022-08-31T10:16:17.140Z,19.52
2022-08-31T10:18:56.101Z,8.13
2022-08-31T10:21:45.757Z,16.17
2022-08-31T10:24:28.797Z,9.25
2022-08-31T10:27:18.798Z,9.23
2022-08-31T10:29:52.638Z,9.50
2022-08-31T10:32:30.501Z,14.40
2022-08-31T10:35:06.023Z,11.40
2022-08-31T10:37:39.277Z,18.50
2022-08-31T10:40:22.221Z,16.00
2022-08-31T10:45:25.331Z,10.90
2022-08-31T10:47:54.848Z,13.55
2022-08-31T10:50:35.620Z,11.77
2022-08-31T10:53:13.591Z,13.40
2022-08-31T10:56:19.632Z,14.27
2022-08-31T10:58:54.521Z,15.55
2022-08-31T11:01:41.302Z,12.90
2022-08-31T11:04:34.545Z,12.70
2022-08-31T11:07:04.597Z,14.15
2022-08-31T11:09:39.483Z,12.93
2022-08-31T11:12:21.712Z,14.10
2022-08-31T11:15:22.552Z,14.18
2022-08-31T11:18:04.121Z,14.95
2022-08-31T11:21:00.354Z,15.80
2022-08-31T11:23:48.993Z,18.48
2022-08-31T11:26:39.097Z,19.15
2022-08-31T11:29:28.853Z,18.25
2022-08-31T11:32:07.813Z,21.48
2022-08-31T11:34:46.116Z,21.27
2022-08-31T11:37:52.357Z,14.50
2022-08-31T11:40:41.783Z,19.25
2022-08-31T11:43:33.963Z,13.10
2022-08-31T11:46:26.395Z,12.82
2022-08-31T11:48:54.610Z,14.85
2022-08-31T11:51:38.712Z,14.15
2022-08-31T11:54:27.053Z,15.18
2022-08-31T11:56:56.929Z,14.82
2022-08-31T11:59:35.362Z,18.13
2022-08-31T12:02:34.667Z,15.50
2022-08-31T12:05:03.297Z,16.65
2022-08-31T12:07:36.605Z,13.25
2022-08-31T12:10:18.654Z,17.15
2022-08-31T12:13:07.360Z,16.58
2022-08-31T12:16:12.133Z,14.07
2022-08-31T12:19:13.511Z,13.68
2022-08-31T12:21:59.234Z,12.55
2022-08-31T12:25:04.324Z,14.60
2022-08-31T12:27:56.493Z,12.65
2022-08-31T12:30:26.714Z,15.50
2022-08-31T12:33:08.960Z,14.70
2022-08-31T12:35:37.398Z,14.23
2022-08-31T12:38:07.835Z,14.02
2022-08-31T12:40:47.975Z,13.43
2022-08-31T12:43:40.758Z,12.73
2022-08-31T12:46:17.208Z,10.38
2022-08-31T12:48:53.149Z,10.43
2022-08-31T12:51:26.434Z,16.60
2022-08-31T12:54:35.317Z,15.15
2022-08-31T12:57:18.284Z,14.40
2022-08-31T13:00:13.104Z,14.77
2022-08-31T13:02:43.385Z,14.02
2022-08-31T13:05:39.862Z,12.80
2022-08-31T13:08:20.864Z,13.25
2022-08-31T13:10:47.809Z,15.07
2022-08-31T13:13:27.475Z,12.30
2022-08-31T13:16:07.841Z,13.48
2022-08-31T13:18:36.811Z,14.85
2022-08-31T13:21:07.026Z,13.75
2022-08-31T13:23:38.506Z,15.45
2022-08-31T13:26:24.489Z,13.68
2022-08-31T13:28:54.574Z,14.98
2022-08-31T13:31:24.928Z,17.02
2022-08-31T13:33:56.983Z,13.32
2022-08-31T13:36:40.676Z,19.92
2022-08-31T13:39:20.971Z,12.65
2022-08-31T13:42:08.491Z,12.40
2022-08-31T13:44:40.031Z,12.57
2022-08-31T13:47:22.659Z,6.53
2022-08-31T13:49:53.264Z,5.30
2022-08-31T13:52:25.800Z,7.18
2022-08-31T13:55:05.799Z,4.50
2022-08-31T13:57:35.844Z,7.60
2022-08-31T14:00:33.430Z,4.47
2022-08-31T14:03:29.475Z,8.65
2022-08-31T14:05:58.770Z,4.22
2022-08-31T14:08:28.346Z,4.38
2022-08-31T14:10:55.881Z,6.18
2022-08-31T14:13:27.933Z,6.80
2022-08-31T14:15:58.175Z,8.02
2022-08-31T14:18:39.159Z,7.57
2022-08-31T14:21:27.447Z,10.40
2022-08-31T14:24:02.513Z,5.60
2022-08-31T14:26:36.812Z,10.38
2022-08-31T14:29:12.327Z,3.85
2022-08-31T14:31:52.424Z,10.63
2022-08-31T14:34:25.069Z,4.78
2022-08-31T14:36:57.474Z,6.95
2022-08-31T14:39:46.059Z,3.33
2022-08-31T14:42:17.375Z,4.65
2022-08-31T14:44:58.385Z,4.28
2022-08-31T14:47:28.725Z,4.82
2022-08-31T14:50:06.066Z,7.30
2022-08-31T14:52:41.930Z,11.40
2022-08-31T14:55:11.369Z,5.60
2022-08-31T14:57:46.150Z,5.65
2022-08-31T15:00:23.201Z,4.18
2022-08-31T15:02:53.380Z,5.68
2022-08-31T15:05:24.962Z,8.45
2022-08-31T15:07:53.642Z,6.97
2022-08-31T15:10:24.484Z,13.50
2022-08-31T15:12:52.559Z,5.00
2022-08-31T15:15:21.039Z,4.57
2022-08-31T15:17:50.550Z,11.80
2022-08-31T15:20:22.335Z,3.67
2022-08-31T15:22:52.555Z,9.25
2022-08-31T15:25:20.674Z,4.07
2022-08-31T15:27:47.577Z,3.72
2022-08-31T15:30:17.464Z,6.30
2022-08-31T15:32:47.910Z,3.97
2022-08-31T15:35:23.646Z,3.45
2022-08-31T15:37:53.087Z,6.57
2022-08-31T15:40:22.179Z,5.72
2022-08-31T15:42:50.981Z,4.60
2022-08-31T15:45:18.074Z,4.45
2022-08-31T15:48:04.113Z,7.38
2022-08-31T15:50:32.673Z,2.65
2022-08-31T15:53:09.440Z,6.40
2022-08-31T15:55:40.880Z,8.20
2022-08-31T15:58:09.323Z,4.72
2022-08-31T16:00:37.302Z,5.30
2022-08-31T16:03:06.110Z,7.05
2022-08-31T16:05:38.938Z,3.80
2022-08-31T16:10:36.971Z,8.20
2022-08-31T16:13:09.393Z,6.45
2022-08-31T16:15:37.901Z,3.55
2022-08-31T16:18:06.131Z,5.07
2022-08-31T16:20:34.574Z,5.00
2022-08-31T16:23:03.107Z,6.55
2022-08-31T16:25:34.774Z,4.63
2022-08-31T16:28:15.422Z,3.90
2022-08-31T16:30:43.942Z,4.85
2022-08-31T16:33:12.084Z,4.85
2022-08-31T16:35:39.652Z,11.13
2022-08-31T16:38:07.419Z,3.88
2022-08-31T16:40:35.676Z,7.20
2022-08-31T16:43:03.537Z,3.83
2022-08-31T16:45:30.402Z,3.38
2022-08-31T16:48:15.991Z,10.85
2022-08-31T16:50:47.570Z,3.67
2022-08-31T16:53:18.129Z,6.75
2022-08-31T16:55:47.559Z,6.18
2022-08-31T16:58:29.532Z,5.97
2022-08-31T17:01:03.586Z,4.35
2022-08-31T17:03:30.642Z,14.40
2022-08-31T17:05:57.506Z,5.75
2022-08-31T17:08:24.284Z,14.23
2022-08-31T17:10:51.595Z,8.82
2022-08-31T17:13:18.690Z,5.25
2022-08-31T17:15:45.510Z,5.97
2022-08-31T17:18:12.362Z,3.50
2022-08-31T17:20:40.845Z,13.85
2022-08-31T17:23:08.495Z,11.50
2022-08-31T17:25:36.708Z,9.32
2022-08-31T17:28:07.685Z,11.07
2022-08-31T17:30:34.670Z,17.38
2022-08-31T17:33:01.592Z,19.65
2022-08-31T17:35:32.005Z,11.63
2022-08-31T17:37:59.670Z,14.30
2022-08-31T17:40:27.061Z,13.55
2022-08-31T17:42:58.015Z,9.27
2022-08-31T17:45:27.623Z,9.15
2022-08-31T17:47:54.909Z,11.35
2022-08-31T17:50:21.942Z,12.02
2022-08-31T17:52:48.954Z,8.73
2022-08-31T17:55:15.832Z,21.25
2022-08-31T17:57:44.385Z,10.73
2022-08-31T18:00:14.780Z,12.35
2022-08-31T18:02:41.947Z,10.05
2022-08-31T18:05:11.832Z,13.27
2022-08-31T18:07:40.959Z,12.98
2022-08-31T18:10:09.583Z,17.35
2022-08-31T18:12:41.312Z,10.90
2022-08-31T18:15:12.767Z,11.35
2022-08-31T18:17:40.051Z,18.42
2022-08-31T18:20:08.301Z,13.60
2022-08-31T18:22:35.481Z,14.07
2022-08-31T18:25:02.754Z,18.75
2022-08-31T18:27:29.885Z,19.02
2022-08-31T18:29:58.955Z,17.00
2022-08-31T18:32:27.681Z,17.17
2022-08-31T18:34:57.462Z,15.30
2022-08-31T18:37:25.963Z,16.40
2022-08-31T18:40:14.198Z,18.90
2022-08-31T18:43:09.113Z,14.25
2022-08-31T18:45:47.012Z,14.95
2022-08-31T18:48:25.779Z,12.43
2022-08-31T18:50:55.205Z,12.52
2022-08-31T18:53:28.756Z,12.77
2022-08-31T18:55:59.040Z,16.27
2022-08-31T18:58:25.849Z,15.50
2022-08-31T19:01:01.522Z,19.27
2022-08-31T19:03:45.824Z,14.23
2022-08-31T19:06:23.563Z,25.42
2022-08-31T19:08:50.616Z,20.33
2022-08-31T19:11:19.358Z,14.73
2022-08-31T19:13:46.825Z,18.42
2022-08-31T19:16:22.535Z,22.42
2022-08-31T19:18:49.496Z,14.38
2022-08-31T19:21:20.169Z,19.70
2022-08-31T19:23:47.419Z,22.38
2022-08-31T19:26:27.149Z,15.68
2022-08-31T19:28:56.108Z,22.20
2022-08-31T19:31:24.507Z,16.65
2022-08-31T19:33:56.364Z,16.30
2022-08-31T19:36:31.438Z,20.10
2022-08-31T19:39:04.616Z,17.48
2022-08-31T19:41:32.539Z,21.92
2022-08-31T19:44:23.999Z,16.45
2022-08-31T19:46:53.867Z,20.35
2022-08-31T19:49:22.847Z,20.63
2022-08-31T19:51:57.638Z,17.92
2022-08-31T19:54:26.564Z,21.50
2022-08-31T19:56:54.518Z,30.20
2022-08-31T19:59:23.754Z,24.45
2022-08-31T20:02:05.473Z,34.35
2022-08-31T20:04:33.714Z,23.58
2022-08-31T20:07:02.458Z,24.13
2022-08-31T20:09:29.568Z,29.67
2022-08-31T20:12:02.205Z,25.00
2022-08-31T20:14:29.430Z,22.38
2022-08-31T20:16:59.402Z,18.50
2022-08-31T20:19:28.179Z,19.33
2022-08-31T20:22:00.034Z,28.17
2022-08-31T20:24:27.520Z,18.95
2022-08-31T20:27:09.593Z,22.08
2022-08-31T20:29:40.002Z,19.42
2022-08-31T20:32:08.363Z,19.77
2022-08-31T20:34:37.285Z,19.50
2022-08-31T20:37:04.514Z,32.15
2022-08-31T20:39:32.656Z,39.03
2022-08-31T20:42:00.576Z,18.92
2022-08-31T20:44:33.640Z,26.45
2022-08-31T20:50:11.446Z,30.13
2022-08-31T20:52:54.619Z,24.90
2022-08-31T21:01:05.226Z,21.98
2022-08-31T21:05:37.055Z,18.85
2022-08-31T21:12:56.115Z,17.85
2022-08-31T21:16:37.736Z,14.43
2022-08-31T21:20:34.645Z,14.23
2022-08-31T21:23:04.605Z,16.40
2022-08-31T21:25:47.136Z,15.18
2022-08-31T21:28:19.980Z,15.52
2022-08-31T21:31:18.659Z,13.43
2022-08-31T21:34:36.358Z,14.05
2022-08-31T21:37:20.240Z,17.70
2022-08-31T21:40:11.927Z,14.23
2022-08-31T21:42:45.122Z,16.57
2022-08-31T21:45:15.098Z,12.80
2022-08-31T21:47:44.994Z,13.93
2022-08-31T21:50:14.333Z,16.63
2022-08-31T21:52:41.358Z,12.85
2022-08-31T21:55:13.376Z,15.18
2022-08-31T21:57:43.508Z,12.43
2022-08-31T22:00:16.215Z,24.40
2022-08-31T22:02:47.845Z,20.75
2022-08-31T22:05:37.703Z,18.63
2022-08-31T22:08:26.108Z,14.68
2022-08-31T22:11:12.644Z,14.02
2022-08-31T22:14:20.101Z,14.80
2022-08-31T22:21:31.685Z,12.23
2022-08-31T22:24:29.104Z,12.00
2022-08-31T22:27:38.747Z,11.93
2022-08-31T22:30:31.222Z,14.07
2022-08-31T22:33:04.885Z,11.93
2022-08-31T22:35:40.544Z,11.05
2022-08-31T22:38:09.079Z,11.75
2022-08-31T22:40:39.436Z,12.02
2022-08-31T22:43:09.507Z,13.25
2022-08-31T22:45:48.177Z,12.68
2022-08-31T22:48:37.767Z,11.75
2022-08-31T22:55:26.341Z,11.38
2022-08-31T23:02:02.120Z,14.07
2022-08-31T23:12:55.865Z,14.13
2022-08-31T23:20:07.744Z,11.70
2022-08-31T23:23:06.872Z,13.68
2022-08-31T23:25:37.476Z,12.45
2022-08-31T23:28:04.595Z,12.52
2022-08-31T23:30:31.604Z,12.55
2022-08-31T23:33:02.192Z,14.30
2022-08-31T23:35:29.384Z,14.35
2022-08-31T23:38:00.669Z,13.05
2022-08-31T23:40:34.321Z,12.70
2022-08-31T23:43:01.983Z,12.70
2022-08-31T23:45:58.050Z,15.05
2022-08-31T23:48:27.147Z,13.18
2022-08-31T23:50:56.936Z,12.63
2022-08-31T23:53:29.917Z,13.25
2022-08-31T23:56:00.227Z,14.85
2022-08-31T23:58:27.513Z,13.30
